Flight Track Log - Related Links

Times and Time Zones

All times are in EDT time to prevent confusion due to time zone crossing. See the N101MA flight status page for this flight to view local times or setup timezone preferences in your user account.

Time Position Orientation Groundspeed Altitude Reporting Facility
EDT Latitude Longitude Course Direction KTS MPH feet Rate Location/Type
Tue 07:09:20 PM 40.6167 -73.7833 201° Southwest 105 121 1,300  Level New York TRACON
Tue 07:10:14 PM 40.5833 -73.8000 201° Southwest 113 130 2,100 950 Climbing New York TRACON
Tue 07:11:20 PM 40.5500 -73.8333 217° Southwest 118 136 3,200 952 Climbing New York TRACON
Tue 07:12:20 PM 40.5333 -73.8500 217° Southwest 124 143 4,100 950 Climbing New York TRACON
Tue 07:13:20 PM 40.5000 -73.8833 217° Southwest 130 150 5,100 950 Climbing New York TRACON
Tue 07:14:20 PM 40.4667 -73.9000 201° Southwest 133 153 6,000 500 Climbing New York TRACON
Tue 07:15:20 PM 40.4333 -73.9333 217° Southwest 163 188 6,100 50 Climbing New York TRACON
Tue 07:16:20 PM 40.3833 -73.9500 194° South 162 186 6,100  Level New York TRACON
Tue 07:18:00 PM 40.3209 -73.9969 210° Southwest  Level FlightAware Approximate
Tue 07:25:00 PM 40.0564 -74.1824 223° Southwest  Level FlightAware Approximate
Tue 07:26:00 PM 40.0246 -74.2205 223° Southwest  Level FlightAware Approximate
Tue 07:27:00 PM 39.9920 -74.2573 215° Southwest  Level FlightAware Approximate
Tue 07:28:00 PM 39.9566 -74.2896 215° Southwest  Level FlightAware Approximate
Tue 07:29:00 PM 39.9212 -74.3218 215° Southwest  Level FlightAware Approximate
Tue 07:30:00 PM 39.8858 -74.3540 215° Southwest  Level FlightAware Approximate
Tue 07:31:00 PM 39.8504 -74.3861 215° Southwest  Level FlightAware Approximate
Tue 07:31:30 PM 39.8039 -74.4464 214° Southwest 168 193 6,100  Level Washington Center
Tue 07:32:00 PM 39.8149 -74.4182 214° Southwest  Level FlightAware Approximate
Tue 07:33:00 PM 39.7793 -74.4499 214° Southwest  Level FlightAware Approximate
Tue 07:33:00 PM 39.7479 -74.4887 210° Southwest  Level FlightAware Approximate
Tue 07:34:00 PM 39.7437 -74.4816 214° Southwest  Level FlightAware Approximate
Tue 07:35:00 PM 39.7080 -74.5133 214° Southwest  Level FlightAware Approximate
Tue 07:35:30 PM 39.6572 -74.5917 218° Southwest 168 193 6,100  Level Washington Center
Tue 07:36:00 PM 39.6724 -74.5449 214° Southwest  Level FlightAware Approximate
Tue 07:37:00 PM 39.5959 -74.6185 199° South  Level FlightAware Approximate
Tue 07:39:31 PM 39.5061 -74.7336 216° Southwest 165 190 6,100  Level Washington Center
Tue 07:40:00 PM 39.5200 -74.6967 218° Southwest  Level FlightAware Approximate
Tue 07:41:00 PM 39.4525 -74.7790 213° Southwest  Level FlightAware Approximate
Tue 07:43:30 PM 39.3297 -74.8081 203° Southwest 165 190 6,100  Level Washington Center
Tue 07:44:00 PM 39.3732 -74.8353 216° Southwest  Level FlightAware Approximate
Tue 07:45:00 PM 39.2761 -74.8550 214° Southwest  Level FlightAware Approximate
Tue 07:48:00 PM 39.1966 -74.9788 203° Southwest  Level FlightAware Approximate
Tue 07:52:00 PM 38.9809 -74.9380 203° Southwest  Level Estimated
Tue 07:53:00 PM 38.9523 -74.9796 228° Southwest  Level FlightAware Approximate
Tue 07:54:00 PM 38.9237 -75.0211 228° Southwest  Level FlightAware Approximate
Tue 07:55:00 PM 38.8809 -75.0284 207° Southwest  Level Estimated
Tue 07:56:00 PM 38.8472 -75.0630 219° Southwest  Level FlightAware Approximate
Tue 07:57:00 PM 38.8135 -75.0976 219° Southwest  Level FlightAware Approximate
Tue 07:58:00 PM 38.7798 -75.1322 219° Southwest  Level FlightAware Approximate
Tue 07:59:00 PM 38.7461 -75.1668 219° Southwest  Level FlightAware Approximate
Tue 08:00:00 PM 38.7124 -75.2013 219° Southwest  Level FlightAware Approximate
Tue 08:01:00 PM 38.6697 -75.1931 208° Southwest  Level Estimated
Tue 08:02:00 PM 38.6359 -75.2275 219° Southwest  Level FlightAware Approximate
Tue 08:03:00 PM 38.6100 -75.2733 234° Southwest  Level FlightAware Approximate
Tue 08:04:00 PM 38.5841 -75.3191 234° Southwest  Level FlightAware Approximate
Tue 08:05:00 PM 38.5456 -75.2915 207° Southwest  Level Estimated
Tue 08:06:00 PM 38.5106 -75.3260 218° Southwest  Level FlightAware Approximate
Tue 08:07:00 PM 38.4756 -75.3605 218° Southwest  Level FlightAware Approximate
Tue 08:08:00 PM 38.4406 -75.3949 218° Southwest  Level FlightAware Approximate
Tue 08:09:00 PM 38.4056 -75.4292 218° Southwest  Level FlightAware Approximate
Tue 08:10:00 PM 38.3705 -75.4636 218° Southwest  Level FlightAware Approximate
Tue 08:11:00 PM 38.3333 -75.4607 90° East  Level FlightAware Approximate
Tue 08:12:00 PM 38.3333 -75.4044 90° East  Level FlightAware Approximate
Tue 08:13:00 PM 38.3287 -75.3484 97° East  Level FlightAware Approximate
Tue 08:14:00 PM 38.3236 -75.2925 97° East  Level FlightAware Approximate
Tue 08:15:00 PM 38.3185 -75.2366 97° East  Level FlightAware Approximate
Tue 08:16:00 PM 38.3108 -75.1812 102° East  Level FlightAware Approximate
Tue 08:17:00 PM 38.3016 -75.1261 102° East  Level FlightAware Approximate
Tue 08:18:00 PM 38.3000 -75.1167 102° East  Level FlightAware Approximate
Tue 08:19:00 PM 38.3104 -75.1240 102° East  Level Estimated
Tue 08:20:00 PM 38.3104 -75.1240 102° East  Level Estimated
Tue 08:21:00 PM 38.3104 -75.1240 102° East  Level Estimated
Tue 08:22:00 PM 38.3104 -75.1240 102° East  Level Estimated
Tue 08:23:00 PM 38.3104 -75.1240 102° East  Level Estimated
Tue 08:24:00 PM 38.3104 -75.1240 102° East  Level Estimated
Tue 08:25:00 PM 38.3104 -75.1240 102° East  Level Estimated
Tue 08:26:00 PM 38.3104 -75.1240 102° East  Level Estimated
Tue 08:27:00 PM 38.3104 -75.1240 102° East  Level Estimated
Tue 08:28:00 PM 38.3104 -75.1240 102° East  Level Estimated
Tue 08:29:00 PM 38.3104 -75.1240 102° East  Level Estimated
Tue 08:30:00 PM 38.3104 -75.1240 102° East  Level Estimated
Tue 08:31:00 PM 38.3104 -75.1240 102° East  Level Estimated
Tue 08:32:00 PM 38.3104 -75.1240 102° East  Level Estimated

Login

Don't have an account? Register now (free) for customized features, flight alerts, and more!